Time;durP1;ratioP1;P1;durP2;ratioP2;P2;SDS_P1;SDS_P2;PMS_P1;PMS_P2;Temp;Humidity;BMP_temperature;BMP_pressure;BME280_temperature;BME280_humidity;BME280_pressure;Samples;Min_cycle;Max_cycle;Signal;HPM_P1;HPM_P2
2022/04/14 00:00:14;;;;;;;6.20;5.60;;;14.10;99.90;;;;;;5013501;28;20182;-68
2022/04/14 00:02:40;;;;;;;8.40;6.63;;;14.00;99.90;;;;;;5013580;28;20437;-68
2022/04/14 00:05:07;;;;;;;10.33;6.67;;;13.90;99.90;;;;;;5013577;28;20453;-70
2022/04/14 00:07:32;;;;;;;10.60;9.50;;;13.80;99.90;;;;;;5013604;28;20555;-69
2022/04/14 00:09:58;;;;;;;17.80;14.93;;;13.80;99.90;;;;;;5013302;28;20429;-69
2022/04/14 00:12:23;;;;;;;12.07;8.10;;;13.90;99.90;;;;;;5013449;28;20195;-69
2022/04/14 00:14:49;;;;;;;7.73;7.03;;;13.90;99.90;;;;;;5013466;28;20175;-69
2022/04/14 00:17:14;;;;;;;8.33;6.87;;;13.90;99.90;;;;;;5013329;28;20175;-69
2022/04/14 00:19:41;;;;;;;14.10;8.73;;;14.00;99.90;;;;;;5013062;28;20179;-69
2022/04/14 00:22:07;;;;;;;8.60;6.70;;;13.90;99.90;;;;;;5013300;28;20198;-69
2022/04/14 00:24:32;;;;;;;9.77;8.77;;;13.90;99.90;;;;;;5013463;28;20418;-69
2022/04/14 00:26:57;;;;;;;10.50;7.50;;;13.90;99.90;;;;;;5013280;28;20410;-69
2022/04/14 00:29:23;;;;;;;7.60;6.60;;;13.80;99.90;;;;;;5013024;28;20217;-69
2022/04/14 00:31:48;;;;;;;8.63;7.10;;;13.80;99.90;;;;;;5013157;28;20199;-69
2022/04/14 00:34:14;;;;;;;11.90;6.60;;;13.70;99.90;;;;;;5013067;28;20178;-69
2022/04/14 00:36:40;;;;;;;7.50;6.80;;;13.70;99.90;;;;;;5013017;28;20175;-69
2022/04/14 00:39:05;;;;;;;7.33;6.60;;;13.60;99.90;;;;;;5012694;28;20749;-69
2022/04/14 00:41:31;;;;;;;7.60;6.73;;;13.60;99.90;;;;;;5013008;28;20179;-69
2022/04/14 00:43:56;;;;;;;10.53;5.93;;;13.60;99.90;;;;;;5012992;28;20174;-69
2022/04/14 00:46:22;;;;;;;8.70;7.33;;;13.50;99.90;;;;;;5013222;28;20251;-69
2022/04/14 00:48:53;;;;;;;7.53;6.83;;;13.60;99.90;;;;;;5012456;28;20178;-69
2022/04/14 00:51:18;;;;;;;11.40;6.80;;;13.60;99.90;;;;;;5012748;28;20195;-69
2022/04/14 00:53:44;;;;;;;13.00;7.13;;;13.50;99.90;;;;;;5012775;28;20449;-69
2022/04/14 00:56:10;;;;;;;12.23;7.33;;;13.40;99.90;;;;;;5012825;28;20573;-70
2022/04/14 00:58:35;;;;;;;8.17;6.40;;;13.40;99.90;;;;;;5012362;28;20183;-69
2022/04/14 01:01:02;;;;;;;6.23;5.40;;;13.40;99.90;;;;;;5012581;28;20199;-69
2022/04/14 01:03:28;;;;;;;8.43;6.43;;;13.40;99.90;;;;;;5012697;28;20178;-69
2022/04/14 01:05:54;;;;;;;9.20;6.20;;;13.40;99.90;;;;;;5012555;28;20932;-69
2022/04/14 01:08:20;;;;;;;9.07;6.80;;;13.30;99.90;;;;;;5011861;28;20167;-68
2022/04/14 01:10:48;;;;;;;6.30;5.77;;;13.30;99.90;;;;;;5012704;28;20448;-69
2022/04/14 01:13:17;;;;;;;6.60;5.80;;;13.40;99.90;;;;;;5012716;28;21038;-69
2022/04/14 01:15:44;;;;;;;11.00;7.00;;;13.40;99.90;;;;;;5012355;28;20414;-69
2022/04/14 01:18:10;;;;;;;14.47;7.77;;;13.50;99.90;;;;;;5012382;28;20458;-69
2022/04/14 01:20:38;;;;;;;7.73;6.93;;;13.50;99.90;;;;;;5012246;28;20495;-69
2022/04/14 01:23:04;;;;;;;8.30;6.80;;;13.50;99.90;;;;;;5012270;28;20466;-69
2022/04/14 01:25:30;;;;;;;11.40;5.63;;;13.50;99.90;;;;;;5012199;28;20979;-70
2022/04/14 01:27:56;;;;;;;9.53;5.87;;;13.60;99.90;;;;;;5012568;28;20497;-69
2022/04/14 01:30:22;;;;;;;5.10;4.53;;;13.70;99.90;;;;;;5011883;28;20422;-70
2022/04/14 01:32:48;;;;;;;7.20;5.00;;;13.80;99.90;;;;;;5012156;28;20665;-70
2022/04/14 01:35:13;;;;;;;5.97;5.13;;;13.80;99.90;;;;;;5012218;28;20504;-69
2022/04/14 01:37:39;;;;;;;10.60;5.60;;;13.70;99.90;;;;;;5011987;28;20469;-69
2022/04/14 01:40:05;;;;;;;8.00;5.53;;;13.60;99.90;;;;;;5012318;28;20570;-69
2022/04/14 01:42:31;;;;;;;8.63;5.77;;;13.60;99.90;;;;;;5012087;28;20238;-69
2022/04/14 01:44:56;;;;;;;6.67;5.40;;;13.50;99.90;;;;;;5012042;28;20417;-69
2022/04/14 01:47:22;;;;;;;8.27;5.87;;;13.50;99.90;;;;;;5012087;28;20171;-70
2022/04/14 01:49:47;;;;;;;8.50;6.70;;;13.50;99.90;;;;;;5011812;28;20181;-69
2022/04/14 01:52:13;;;;;;;6.27;4.93;;;13.50;99.90;;;;;;5011980;28;20272;-70
2022/04/14 01:54:38;;;;;;;7.50;5.17;;;13.50;99.90;;;;;;5012104;28;20217;-71
2022/04/14 01:57:04;;;;;;;8.97;5.13;;;13.50;99.90;;;;;;5012503;28;20181;-69
2022/04/14 01:59:30;;;;;;;6.97;5.00;;;13.50;99.90;;;;;;5011756;28;20254;-69
2022/04/14 02:01:56;;;;;;;8.43;5.50;;;13.50;99.90;;;;;;5011931;28;20518;-69
2022/04/14 02:04:21;;;;;;;8.37;5.20;;;13.60;99.90;;;;;;5011947;28;20272;-69
2022/04/14 02:06:47;;;;;;;8.40;5.70;;;13.60;99.90;;;;;;5011865;28;20245;-69
2022/04/14 02:09:12;;;;;;;14.50;6.07;;;13.60;99.90;;;;;;5011586;28;20244;-69
2022/04/14 02:11:38;;;;;;;10.40;5.87;;;13.60;99.90;;;;;;5011722;28;20203;-69
2022/04/14 02:14:03;;;;;;;10.20;6.47;;;13.50;99.90;;;;;;5011825;28;20179;-69
2022/04/14 02:16:29;;;;;;;11.47;7.23;;;13.50;99.90;;;;;;5011787;28;20179;-69
2022/04/14 02:18:54;;;;;;;9.40;5.70;;;13.60;99.90;;;;;;5011401;28;20290;-70
2022/04/14 02:21:20;;;;;;;8.57;4.90;;;13.50;99.90;;;;;;5014794;28;20218;-69
2022/04/14 02:23:45;;;;;;;11.77;6.33;;;13.50;99.90;;;;;;5015560;28;20179;-69
2022/04/14 02:26:11;;;;;;;10.73;6.30;;;13.50;99.90;;;;;;5015577;28;20298;-69
2022/04/14 02:28:36;;;;;;;14.17;6.90;;;13.30;99.90;;;;;;5015192;28;20224;-69
2022/04/14 02:31:02;;;;;;;11.33;5.50;;;13.30;99.90;;;;;;5015403;28;20271;-69
2022/04/14 02:33:27;;;;;;;6.40;5.90;;;13.30;99.90;;;;;;5015363;28;20663;-70
2022/04/14 02:35:53;;;;;;;7.83;5.77;;;13.30;99.90;;;;;;5015410;28;20183;-68
2022/04/14 02:38:18;;;;;;;7.63;5.83;;;13.30;99.90;;;;;;5014886;28;20198;-69
2022/04/14 02:40:44;;;;;;;6.13;5.37;;;13.20;99.90;;;;;;5015248;28;20265;-69
2022/04/14 02:43:09;;;;;;;13.60;6.17;;;13.20;99.90;;;;;;5015159;28;20570;-69
2022/04/14 02:45:35;;;;;;;7.43;6.67;;;13.10;99.90;;;;;;5015161;28;20187;-69
2022/04/14 02:48:00;;;;;;;9.17;6.10;;;13.20;99.90;;;;;;5015198;28;20203;-69
2022/04/14 02:50:26;;;;;;;6.37;5.37;;;13.20;99.90;;;;;;5014764;28;20175;-69
2022/04/14 02:52:54;;;;;;;8.80;6.40;;;13.20;99.90;;;;;;5014984;28;20197;-69
2022/04/14 02:55:20;;;;;;;12.53;6.57;;;13.20;99.90;;;;;;5014974;28;20422;-69
2022/04/14 02:57:47;;;;;;;8.27;7.37;;;13.20;99.90;;;;;;5014918;28;20505;-69
2022/04/14 03:00:14;;;;;;;6.43;5.80;;;13.20;99.90;;;;;;5014625;28;20782;-69
2022/04/14 03:02:40;;;;;;;8.63;7.67;;;13.10;99.90;;;;;;5014758;28;20816;-68
2022/04/14 03:05:06;;;;;;;9.60;7.20;;;13.10;99.90;;;;;;5014797;28;20426;-69
2022/04/14 03:07:33;;;;;;;15.07;7.20;;;13.00;99.90;;;;;;5014604;28;20461;-69
2022/04/14 03:09:58;;;;;;;9.40;7.17;;;13.00;99.90;;;;;;5014452;28;20420;-69
2022/04/14 03:12:24;;;;;;;10.40;6.90;;;13.00;99.90;;;;;;5014441;28;20434;-68
2022/04/14 03:14:50;;;;;;;9.23;7.73;;;13.10;99.90;;;;;;5014680;28;20167;-69
2022/04/14 03:17:16;;;;;;;8.10;7.03;;;13.00;99.90;;;;;;5014622;28;20328;-69
2022/04/14 03:19:42;;;;;;;9.17;8.00;;;13.00;99.90;;;;;;5014205;28;20970;-69
2022/04/14 03:22:08;;;;;;;7.77;7.07;;;13.00;99.90;;;;;;5014446;28;20186;-69
2022/04/14 03:24:34;;;;;;;9.20;8.30;;;13.00;99.90;;;;;;5014491;28;20916;-69
2022/04/14 03:26:59;;;;;;;12.80;9.03;;;13.00;99.90;;;;;;5014256;28;20171;-69
2022/04/14 03:29:26;;;;;;;12.63;8.80;;;13.00;99.90;;;;;;5014001;28;20695;-69
2022/04/14 03:31:51;;;;;;;11.73;9.47;;;12.90;99.90;;;;;;5013982;28;20213;-69
2022/04/14 03:34:17;;;;;;;14.87;10.50;;;12.90;99.90;;;;;;5014242;28;20422;-69
2022/04/14 03:36:42;;;;;;;14.97;8.87;;;12.90;99.90;;;;;;5014105;28;20187;-69
2022/04/14 03:39:08;;;;;;;11.37;9.97;;;12.90;99.90;;;;;;5013990;28;20257;-69
2022/04/14 03:41:33;;;;;;;14.13;10.50;;;12.90;99.90;;;;;;5013984;28;20559;-68
2022/04/14 03:43:59;;;;;;;15.37;13.83;;;12.80;99.90;;;;;;5014160;28;20237;-68
2022/04/14 03:46:25;;;;;;;11.87;10.60;;;12.80;99.90;;;;;;5012830;28;20225;-69
2022/04/14 03:48:50;;;;;;;17.90;12.50;;;12.80;99.90;;;;;;5013574;28;20230;-69
2022/04/14 03:51:16;;;;;;;18.00;13.07;;;12.80;99.90;;;;;;5013978;28;20195;-70
2022/04/14 03:53:42;;;;;;;14.80;13.20;;;12.80;99.90;;;;;;5013908;28;20536;-68
2022/04/14 03:56:08;;;;;;;18.50;13.77;;;12.80;99.90;;;;;;5013740;28;20178;-69
2022/04/14 03:58:34;;;;;;;14.00;12.40;;;12.90;99.90;;;;;;5013679;28;20771;-69
2022/04/14 04:01:00;;;;;;;19.70;12.70;;;12.80;99.90;;;;;;5013732;28;20975;-69
2022/04/14 04:03:25;;;;;;;13.37;11.10;;;12.80;99.90;;;;;;5013722;28;20175;-69
2022/04/14 04:05:51;;;;;;;14.97;13.47;;;12.80;99.90;;;;;;5013711;28;20186;-69
2022/04/14 04:08:18;;;;;;;16.30;14.00;;;12.80;99.90;;;;;;5013386;28;20201;-69
2022/04/14 04:10:44;;;;;;;22.50;16.20;;;12.70;99.90;;;;;;5013552;28;20168;-69
2022/04/14 04:13:09;;;;;;;19.43;14.60;;;12.70;99.90;;;;;;5013490;28;20448;-69
2022/04/14 04:15:35;;;;;;;21.97;15.47;;;12.70;99.90;;;;;;5013529;28;20169;-69
2022/04/14 04:18:01;;;;;;;16.30;14.70;;;12.60;99.90;;;;;;5013428;28;20167;-70
2022/04/14 04:20:26;;;;;;;24.23;16.67;;;12.50;99.90;;;;;;5013278;28;20997;-69
2022/04/14 04:22:52;;;;;;;19.03;17.20;;;12.50;99.90;;;;;;5013361;28;20202;-69
2022/04/14 04:25:18;;;;;;;21.30;15.17;;;12.50;99.90;;;;;;5013770;28;20183;-70
2022/04/14 04:27:43;;;;;;;23.70;15.43;;;12.50;99.90;;;;;;5013217;28;20195;-69
2022/04/14 04:30:09;;;;;;;19.67;16.17;;;12.40;99.90;;;;;;5012973;28;20640;-68
2022/04/14 04:32:35;;;;;;;19.17;16.80;;;12.40;99.90;;;;;;5013072;28;20621;-69
2022/04/14 04:35:02;;;;;;;20.43;18.40;;;12.40;99.90;;;;;;5013150;28;20426;-69
2022/04/14 04:37:28;;;;;;;23.30;20.07;;;12.40;99.90;;;;;;5013009;28;20194;-69
2022/04/14 04:39:53;;;;;;;27.67;21.27;;;12.40;99.90;;;;;;5012645;28;20413;-67
2022/04/14 04:42:19;;;;;;;27.00;23.30;;;12.40;99.90;;;;;;5012317;28;20202;-69
2022/04/14 04:44:44;;;;;;;28.53;24.20;;;12.40;99.90;;;;;;5013146;28;20254;-69
2022/04/14 04:47:10;;;;;;;31.60;23.47;;;12.50;99.90;;;;;;5012818;28;20171;-69
2022/04/14 04:49:36;;;;;;;31.37;25.67;;;12.50;99.90;;;;;;5012629;28;20174;-69
2022/04/14 04:52:01;;;;;;;27.73;24.83;;;12.50;99.90;;;;;;5012847;28;20194;-69
2022/04/14 04:54:27;;;;;;;25.93;22.97;;;12.50;99.90;;;;;;5013237;28;20273;-70
2022/04/14 04:56:52;;;;;;;25.43;22.50;;;12.50;99.90;;;;;;5012782;28;20194;-70
2022/04/14 04:59:18;;;;;;;25.63;22.93;;;12.40;99.90;;;;;;5012598;28;20261;-69
2022/04/14 05:01:43;;;;;;;24.43;21.97;;;12.40;99.90;;;;;;5012762;28;20270;-69
2022/04/14 05:04:11;;;;;;;27.57;24.00;;;12.50;99.90;;;;;;5012575;28;20657;-69
2022/04/14 05:06:37;;;;;;;30.03;23.90;;;12.50;99.90;;;;;;5012642;28;20175;-69
2022/04/14 05:09:02;;;;;;;28.53;23.77;;;12.50;99.90;;;;;;5012083;28;20823;-69
2022/04/14 05:11:28;;;;;;;29.30;25.10;;;12.50;99.90;;;;;;5012455;28;20430;-69
2022/04/14 05:13:53;;;;;;;28.97;23.17;;;12.60;99.90;;;;;;5012476;28;20539;-69
2022/04/14 05:16:19;;;;;;;27.37;23.70;;;12.70;99.90;;;;;;5012298;28;20166;-69
2022/04/14 05:18:44;;;;;;;28.47;25.47;;;12.80;99.90;;;;;;5011941;28;20175;-70
2022/04/14 05:21:10;;;;;;;27.60;23.70;;;12.90;99.90;;;;;;5012648;28;20253;-69
2022/04/14 05:23:35;;;;;;;27.17;23.63;;;12.90;99.90;;;;;;5012301;28;20262;-69
2022/04/14 05:26:01;;;;;;;29.73;26.37;;;13.00;99.90;;;;;;5012146;28;20179;-70
2022/04/14 05:28:26;;;;;;;31.37;26.43;;;13.10;99.90;;;;;;5011849;28;20238;-70
2022/04/14 05:30:52;;;;;;;31.17;26.13;;;13.10;99.90;;;;;;5012185;28;20171;-69
2022/04/14 05:33:18;;;;;;;38.43;28.03;;;13.20;99.90;;;;;;5012020;28;20555;-70
2022/04/14 05:35:45;;;;;;;32.70;28.33;;;13.30;99.90;;;;;;5012172;28;20250;-69
2022/04/14 05:38:10;;;;;;;37.00;30.70;;;13.40;99.90;;;;;;5011464;28;20186;-69
2022/04/14 05:40:41;;;;;;;34.87;26.93;;;13.60;99.90;;;;;;5011902;28;20852;-69
2022/04/14 05:43:19;;;;;;;35.23;27.60;;;13.70;99.90;;;;;;5012090;28;20194;-69
2022/04/14 05:45:47;;;;;;;34.83;31.10;;;13.70;99.90;;;;;;5012066;28;20421;-69
2022/04/14 05:48:14;;;;;;;35.63;30.90;;;13.80;99.90;;;;;;5011439;28;20867;-68
2022/04/14 05:50:40;;;;;;;35.63;32.10;;;13.90;99.90;;;;;;5012057;28;20483;-70
2022/04/14 05:53:06;;;;;;;35.70;31.63;;;14.00;99.90;;;;;;5011964;28;20560;-69
2022/04/14 05:55:32;;;;;;;32.40;27.00;;;14.20;99.90;;;;;;5015772;28;20421;-68
2022/04/14 05:57:57;;;;;;;30.80;27.60;;;14.40;99.90;;;;;;5016039;28;20185;-69
2022/04/14 06:00:23;;;;;;;32.63;29.20;;;14.60;99.90;;;;;;5015796;28;20176;-69
2022/04/14 06:02:48;;;;;;;31.00;27.60;;;14.60;99.90;;;;;;5015937;28;20206;-70
2022/04/14 06:05:14;;;;;;;32.80;28.17;;;14.70;99.90;;;;;;5016083;28;20217;-69
2022/04/14 06:07:39;;;;;;;32.07;28.50;;;14.80;99.90;;;;;;5015841;28;20195;-69
2022/04/14 06:10:05;;;;;;;36.83;30.40;;;14.90;99.90;;;;;;5015684;28;20636;-69
2022/04/14 06:12:31;;;;;;;33.97;29.73;;;14.90;99.90;;;;;;5015776;28;20277;-69
2022/04/14 06:14:56;;;;;;;33.40;30.07;;;14.90;99.90;;;;;;5015772;28;20163;-68
2022/04/14 06:17:22;;;;;;;36.93;29.73;;;14.90;99.90;;;;;;5015643;28;20654;-68
2022/04/14 06:19:47;;;;;;;32.60;29.20;;;15.00;99.90;;;;;;5015453;28;20182;-69
2022/04/14 06:22:13;;;;;;;35.53;28.47;;;15.20;99.90;;;;;;5015539;28;20695;-69
2022/04/14 06:24:39;;;;;;;30.83;27.00;;;15.30;99.90;;;;;;5015715;28;20175;-69
2022/04/14 06:27:05;;;;;;;32.60;28.33;;;15.40;99.90;;;;;;5015556;28;20217;-69
2022/04/14 06:29:31;;;;;;;31.37;28.17;;;15.60;99.90;;;;;;5015004;28;20202;-69
2022/04/14 06:31:57;;;;;;;30.17;27.37;;;15.80;99.90;;;;;;5015335;28;20564;-69
2022/04/14 06:34:22;;;;;;;30.47;27.17;;;16.00;99.90;;;;;;5015682;28;20167;-69
2022/04/14 06:36:48;;;;;;;30.10;26.80;;;16.10;99.90;;;;;;5015303;28;20233;-69
2022/04/14 06:39:13;;;;;;;30.73;27.57;;;16.00;99.90;;;;;;5015218;28;20179;-69
2022/04/14 06:41:39;;;;;;;30.20;26.20;;;15.90;99.90;;;;;;5015252;28;20664;-69
2022/04/14 06:44:06;;;;;;;29.90;25.47;;;16.00;99.90;;;;;;5015271;28;20549;-69
2022/04/14 06:46:31;;;;;;;29.20;24.80;;;16.10;99.90;;;;;;5020347;28;20478;-70
2022/04/14 06:48:57;;;;;;;28.70;25.80;;;16.30;99.90;;;;;;5017422;28;20498;-67
2022/04/14 06:51:23;;;;;;;29.70;25.90;;;16.40;99.90;;;;;;5004857;28;20198;-69
2022/04/14 06:53:48;;;;;;;26.13;23.57;;;16.60;99.90;;;;;;5031124;28;20190;-70
2022/04/14 06:56:14;;;;;;;27.53;23.53;;;16.70;99.90;;;;;;5033385;28;20933;-69
2022/04/14 06:58:42;;;;;;;25.90;23.20;;;16.70;99.90;;;;;;5023994;28;20201;-69
2022/04/14 07:01:08;;;;;;;29.33;25.20;;;16.80;99.90;;;;;;5034372;28;20508;-70
2022/04/14 07:03:34;;;;;;;26.23;23.60;;;17.00;99.90;;;;;;5034747;28;20822;-70
2022/04/14 07:06:00;;;;;;;27.10;23.17;;;17.20;99.90;;;;;;5033981;28;20463;-70
2022/04/14 07:08:26;;;;;;;25.80;23.30;;;17.20;99.90;;;;;;5031814;28;20310;-68
2022/04/14 07:10:52;;;;;;;29.40;22.70;;;17.10;99.90;;;;;;5033530;28;20421;-69
2022/04/14 07:13:18;;;;;;;23.87;21.33;;;17.10;99.90;;;;;;5027872;28;20484;-69
2022/04/14 07:15:44;;;;;;;26.93;21.50;;;17.40;99.90;;;;;;5032823;28;20461;-69
2022/04/14 07:18:10;;;;;;;25.50;20.43;;;17.80;99.90;;;;;;5034096;28;20174;-68
2022/04/14 07:20:35;;;;;;;24.07;21.10;;;17.90;99.90;;;;;;5022357;28;20486;-68
2022/04/14 07:23:02;;;;;;;24.30;21.43;;;18.00;99.90;;;;;;5026776;28;20451;-70
2022/04/14 07:25:30;;;;;;;23.70;21.47;;;18.20;99.90;;;;;;5034323;28;20177;-69
2022/04/14 07:27:56;;;;;;;25.40;22.30;;;18.50;99.90;;;;;;5034007;28;20449;-69
2022/04/14 07:30:23;;;;;;;23.97;21.70;;;18.60;99.90;;;;;;5030577;28;20428;-69
2022/04/14 07:32:49;;;;;;;26.27;21.60;;;18.60;99.90;;;;;;5033966;28;20690;-69
2022/04/14 07:35:15;;;;;;;22.67;18.27;;;18.60;99.90;;;;;;5034194;28;20413;-69
2022/04/14 07:37:41;;;;;;;21.63;19.30;;;18.90;99.90;;;;;;5033934;28;20186;-69
2022/04/14 07:40:08;;;;;;;21.87;19.70;;;18.90;99.90;;;;;;5030434;28;20781;-69
2022/04/14 07:42:38;;;;;;;24.10;21.10;;;19.20;99.90;;;;;;5033787;28;20433;-68
2022/04/14 07:45:05;;;;;;;20.83;18.60;;;19.40;99.90;;;;;;5033823;28;20470;-68
2022/04/14 07:47:31;;;;;;;23.20;21.10;;;19.60;99.90;;;;;;5033835;28;20421;-70
2022/04/14 07:49:56;;;;;;;22.60;19.50;;;19.60;99.90;;;;;;5026887;28;20432;-70
2022/04/14 07:52:22;;;;;;;22.73;20.30;;;19.60;99.90;;;;;;5014009;28;20237;-71
2022/04/14 07:54:48;;;;;;;22.73;20.53;;;19.40;99.90;;;;;;5013768;28;20225;-71
2022/04/14 07:57:13;;;;;;;25.33;20.77;;;19.40;99.90;;;;;;5014718;28;20185;-70
2022/04/14 07:59:39;;;;;;;24.33;20.13;;;19.70;99.90;;;;;;5022281;28;20213;-71
2022/04/14 08:02:05;;;;;;;22.90;19.10;;;19.60;99.90;;;;;;5033465;28;20208;-70
2022/04/14 08:04:31;;;;;;;19.57;16.80;;;19.80;99.90;;;;;;5033510;28;20174;-71
2022/04/14 08:06:57;;;;;;;21.43;18.40;;;20.30;99.90;;;;;;5030872;28;20880;-70
2022/04/14 08:09:23;;;;;;;22.27;17.77;;;20.70;99.90;;;;;;5019023;28;20491;-71
2022/04/14 08:11:48;;;;;;;23.83;21.50;;;21.20;99.90;;;;;;5033275;28;20182;-71
2022/04/14 08:14:14;;;;;;;26.43;17.87;;;21.60;99.90;;;;;;5032669;28;20177;-71
2022/04/14 08:16:39;;;;;;;19.60;17.80;;;21.80;99.90;;;;;;5024765;28;20658;-71
2022/04/14 08:19:05;;;;;;;21.97;19.20;;;21.90;99.90;;;;;;5015671;28;20189;-71
2022/04/14 08:21:31;;;;;;;18.80;16.90;;;22.00;99.90;;;;;;5033098;28;20193;-71
2022/04/14 08:23:58;;;;;;;24.30;17.27;;;22.00;99.90;;;;;;5033193;28;20177;-71
2022/04/14 08:26:26;;;;;;;18.50;17.00;;;22.30;99.90;;;;;;5014939;28;20186;-71
2022/04/14 08:28:53;;;;;;;19.73;17.70;;;22.20;99.90;;;;;;5017485;28;20464;-71
2022/04/14 08:31:21;;;;;;;20.33;18.30;;;22.10;99.90;;;;;;5029891;28;20814;-71
2022/04/14 08:33:48;;;;;;;19.23;17.23;;;22.10;99.90;;;;;;5032971;28;20409;-71
2022/04/14 08:36:15;;;;;;;18.67;16.63;;;21.80;99.90;;;;;;5032880;28;20923;-71
2022/04/14 08:38:44;;;;;;;20.10;18.10;;;22.00;99.90;;;;;;5017098;28;20464;-72
2022/04/14 08:41:11;;;;;;;18.27;16.47;;;22.10;99.90;;;;;;5032542;28;20933;-71
2022/04/14 08:43:40;;;;;;;19.77;17.60;;;22.60;99.90;;;;;;5032815;28;20508;-71
2022/04/14 08:46:06;;;;;;;18.47;16.57;;;23.00;99.90;;;;;;5032702;28;20491;-71
2022/04/14 08:48:34;;;;;;;21.87;15.50;;;22.80;99.90;;;;;;5029198;28;20734;-71
2022/04/14 08:51:04;;;;;;;18.17;16.57;;;22.80;99.90;;;;;;5031230;28;20490;-71
2022/04/14 08:53:30;;;;;;;19.97;17.97;;;23.00;99.90;;;;;;5032448;28;20439;-71
2022/04/14 08:55:57;;;;;;;18.23;16.40;;;23.00;99.90;;;;;;5032619;28;20910;-71
2022/04/14 08:58:26;;;;;;;19.87;17.77;;;23.30;99.90;;;;;;5030325;28;20181;-71
2022/04/14 09:00:54;;;;;;;17.53;15.73;;;23.50;99.40;;;;;;5030869;28;20421;-72
2022/04/14 09:03:20;;;;;;;19.27;17.57;;;23.80;99.10;;;;;;5032287;28;20459;-72
2022/04/14 09:05:46;;;;;;;21.83;19.50;;;23.90;98.60;;;;;;5032427;28;20417;-72
2022/04/14 09:08:12;;;;;;;17.93;16.23;;;24.60;97.70;;;;;;5031977;28;20471;-73
2022/04/14 09:10:38;;;;;;;15.53;14.03;;;25.00;96.40;;;;;;5015869;28;20183;-72
2022/04/14 09:13:04;;;;;;;18.40;15.97;;;25.30;95.30;;;;;;5021107;28;20268;-72
2022/04/14 09:15:29;;;;;;;17.33;15.83;;;25.70;94.60;;;;;;5028967;28;20466;-72
2022/04/14 09:17:55;;;;;;;17.37;15.70;;;26.30;93.10;;;;;;5028907;28;20432;-71
2022/04/14 09:20:38;;;;;;;17.37;15.80;;;26.20;92.30;;;;;;5024971;28;20675;-71
2022/04/14 09:23:12;;;;;;;16.50;14.90;;;25.60;92.30;;;;;;5029578;28;20605;-71
2022/04/14 09:25:37;;;;;;;17.83;16.23;;;25.00;93.20;;;;;;5029154;28;20413;-71
2022/04/14 09:28:11;;;;;;;14.93;13.53;;;25.70;92.60;;;;;;5029151;28;20954;-71
2022/04/14 09:30:36;;;;;;;17.57;15.77;;;26.30;91.70;;;;;;5020405;28;20177;-72
2022/04/14 09:33:02;;;;;;;16.57;15.07;;;26.40;90.00;;;;;;5028744;28;20515;-72
2022/04/14 09:35:31;;;;;;;19.07;15.77;;;26.60;90.30;;;;;;5028725;28;20776;-72
2022/04/14 09:38:07;;;;;;;18.20;16.30;;;26.80;90.00;;;;;;5028786;28;20440;-72
2022/04/14 09:40:33;;;;;;;15.77;14.27;;;28.20;85.90;;;;;;5023163;28;20502;-72
2022/04/14 09:42:59;;;;;;;17.93;16.10;;;28.80;81.40;;;;;;5028650;28;20970;-72
2022/04/14 09:45:30;;;;;;;14.77;13.20;;;29.50;77.90;;;;;;5028693;28;20558;-72
2022/04/14 09:48:10;;;;;;;15.10;13.70;;;29.90;75.30;;;;;;5028494;28;20218;-73
2022/04/14 09:50:42;;;;;;;18.67;15.87;;;30.20;73.10;;;;;;5025235;28;20426;-70
2022/04/14 09:53:12;;;;;;;18.43;16.73;;;30.40;68.80;;;;;;5028593;28;20451;-70
2022/04/14 09:55:51;;;;;;;15.50;14.10;;;30.30;68.70;;;;;;5028853;28;20875;-70
2022/04/14 09:58:19;;;;;;;15.23;13.93;;;31.10;66.70;;;;;;5027179;28;20425;-72
2022/04/14 10:00:50;;;;;;;16.10;14.70;;;31.90;63.20;;;;;;5026065;28;20505;-70
2022/04/14 10:03:27;;;;;;;15.40;13.43;;;31.80;61.60;;;;;;5028289;28;20456;-70
2022/04/14 10:05:58;;;;;;;14.67;13.23;;;32.00;60.60;;;;;;5028507;28;20432;-70
2022/04/14 10:08:24;;;;;;;14.47;13.17;;;32.70;58.50;;;;;;5026526;28;20456;-70
2022/04/14 10:11:06;;;;;;;18.00;15.50;;;31.60;58.60;;;;;;5026901;28;20484;-70
2022/04/14 10:13:38;;;;;;;15.73;14.30;;;32.80;57.20;;;;;;5028464;28;20420;-68
2022/04/14 10:16:04;;;;;;;14.30;13.03;;;32.50;56.00;;;;;;5025335;28;20424;-66
2022/04/14 10:18:31;;;;;;;14.50;13.30;;;32.40;55.40;;;;;;5025324;28;20957;-66
2022/04/14 10:20:57;;;;;;;13.73;12.43;;;32.70;54.80;;;;;;5027446;28;20435;-64
2022/04/14 10:23:25;;;;;;;14.30;11.70;;;33.30;53.40;;;;;;5017673;28;20429;-65
2022/04/14 10:25:53;;;;;;;17.47;13.57;;;34.20;52.30;;;;;;5018244;28;20428;-65
2022/04/14 10:28:20;;;;;;;13.57;12.23;;;34.60;51.00;;;;;;5010447;28;20434;-66
2022/04/14 10:30:52;;;;;;;13.30;12.20;;;35.10;50.40;;;;;;5025778;28;20511;-66
2022/04/14 10:33:19;;;;;;;13.80;12.40;;;34.30;50.00;;;;;;5028527;28;20487;-64
2022/04/14 10:35:45;;;;;;;12.70;11.50;;;35.00;47.70;;;;;;5025116;28;20478;-65
2022/04/14 10:38:34;;;;;;;13.73;12.37;;;34.20;47.00;;;;;;5008140;28;20556;-65
2022/04/14 10:41:17;;;;;;;12.50;11.30;;;34.00;47.50;;;;;;5020898;28;20209;-65
2022/04/14 10:43:45;;;;;;;13.80;10.70;;;35.20;47.20;;;;;;5031991;28;20504;-65
2022/04/14 10:46:15;;;;;;;10.80;9.73;;;34.10;47.40;;;;;;5031587;28;20459;-65
2022/04/14 10:48:41;;;;;;;12.37;11.43;;;34.40;46.80;;;;;;5028608;28;20428;-65
2022/04/14 10:51:27;;;;;;;12.00;11.00;;;35.20;46.10;;;;;;5030909;28;21004;-65
2022/04/14 10:54:01;;;;;;;13.60;12.20;;;35.00;46.40;;;;;;5031903;28;20503;-66
2022/04/14 10:56:41;;;;;;;12.73;11.20;;;35.40;45.50;;;;;;5031473;28;20930;-67
2022/04/14 10:59:11;;;;;;;13.10;11.70;;;35.60;45.00;;;;;;5028051;28;20460;-65
2022/04/14 11:01:46;;;;;;;13.40;12.30;;;36.10;44.00;;;;;;5030856;28;20445;-65
2022/04/14 11:04:31;;;;;;;13.67;10.57;;;35.30;43.20;;;;;;5040204;28;20427;-65
2022/04/14 11:07:16;;;;;;;12.53;10.83;;;36.20;43.10;;;;;;5033548;28;20416;-65
2022/04/14 11:09:57;;;;;;;11.30;10.20;;;36.40;42.60;;;;;;5027534;28;20786;-65
2022/04/14 11:12:27;;;;;;;13.93;11.70;;;37.30;41.60;;;;;;5031861;28;20815;-66
2022/04/14 11:14:59;;;;;;;10.43;9.43;;;36.60;41.60;;;;;;5022634;28;20507;-66
2022/04/14 11:17:30;;;;;;;14.53;13.17;;;36.90;41.80;;;;;;5029665;28;20421;-67
2022/04/14 11:20:12;;;;;;;11.33;10.30;;;37.30;40.50;;;;;;5027203;28;20433;-65
2022/04/14 11:23:18;;;;;;;13.00;11.93;;;36.90;40.90;;;;;;5031232;28;21033;-65
2022/04/14 11:25:44;;;;;;;13.40;12.30;;;36.90;40.60;;;;;;5031092;28;20432;-67
2022/04/14 11:28:28;;;;;;;14.50;13.13;;;37.00;40.90;;;;;;5031103;28;20816;-66
2022/04/14 11:31:00;;;;;;;16.07;14.57;;;36.70;41.10;;;;;;5029555;28;20421;-65
2022/04/14 11:33:33;;;;;;;16.80;15.50;;;36.70;41.40;;;;;;5030867;28;20432;-67
2022/04/14 11:36:31;;;;;;;15.40;14.10;;;35.40;41.70;;;;;;5026109;28;20425;-66
2022/04/14 11:39:05;;;;;;;15.10;13.53;;;35.70;41.80;;;;;;5014016;28;21039;-66
2022/04/14 11:41:45;;;;;;;16.20;15.00;;;36.50;41.70;;;;;;5029620;28;20447;-66
2022/04/14 11:44:21;;;;;;;15.93;14.47;;;37.20;40.80;;;;;;5030962;28;20428;-65
2022/04/14 11:46:49;;;;;;;17.63;16.30;;;37.40;40.30;;;;;;5031112;28;20424;-67
2022/04/14 11:49:21;;;;;;;18.10;16.30;;;35.80;41.30;;;;;;5030264;28;20435;-64
2022/04/14 11:51:52;;;;;;;16.87;15.40;;;35.40;42.30;;;;;;5031688;28;20503;-70
2022/04/14 11:54:26;;;;;;;16.30;14.90;;;35.20;42.20;;;;;;5030627;28;20425;-68
2022/04/14 11:57:01;;;;;;;16.00;14.80;;;35.70;41.90;;;;;;5030376;28;20416;-68
2022/04/14 11:59:37;;;;;;;16.67;15.13;;;35.80;41.10;;;;;;5026764;28;20468;-72
2022/04/14 12:02:06;;;;;;;16.77;15.20;;;35.40;40.60;;;;;;5030283;28;20848;-69
2022/04/14 12:04:36;;;;;;;17.20;15.80;;;35.30;41.50;;;;;;5030098;28;20586;-67
2022/04/14 12:07:02;;;;;;;16.93;15.60;;;35.20;42.20;;;;;;5030322;28;20466;-68
2022/04/14 12:09:28;;;;;;;15.73;14.07;;;35.90;42.40;;;;;;5026538;28;20957;-71
2022/04/14 12:11:53;;;;;;;17.60;16.00;;;36.60;41.70;;;;;;5029824;28;20452;-69
2022/04/14 12:14:20;;;;;;;17.17;15.87;;;36.40;41.60;;;;;;5030058;28;20472;-68
2022/04/14 12:16:47;;;;;;;15.00;13.77;;;36.10;41.60;;;;;;5030133;28;20197;-68
2022/04/14 12:19:13;;;;;;;16.23;14.73;;;36.80;41.00;;;;;;5026717;28;20476;-68
2022/04/14 12:21:38;;;;;;;15.67;14.20;;;35.30;41.10;;;;;;5029412;28;20440;-70
2022/04/14 12:24:04;;;;;;;15.47;14.07;;;36.10;40.90;;;;;;5030333;28;20289;-68
2022/04/14 12:26:30;;;;;;;15.80;14.40;;;35.80;40.50;;;;;;5029786;28;20205;-68
2022/04/14 12:28:56;;;;;;;16.80;15.20;;;37.30;40.50;;;;;;5026607;28;20452;-68
2022/04/14 12:31:21;;;;;;;17.27;15.63;;;37.30;40.30;;;;;;5029221;28;20573;-70